Alstonville, New South Wales

3:11 AM EST on July 11, 2014 (GMT +1000)
INSWMCLE1 Elev 410 ft | 28.79 °S, 153.40 °E | Change Station

Current weather conditions updated 2 minutes ago

Clear
Clear
49.1 °F
Feels Like 47 °F
N
5.0
Wind Variable Wind from WNW
Gusts 12.1 mph

Today is forecast to be nearly the same temperature as yesterday.

Today
High -- | Low -- °F
--% Chance of Precip.
Yesterday
High -- | Low -- °F
Precip. -- in
6:39 AM 5:04 PM
Waxing Gibbous, 95% visible
Pressure 30.01 in
Visibility 6.2 miles
Clouds
Windchill 47 °F
Dew Point 24 °F
Humidity 37%
Rainfall -999.00 in
Snow Depth Not available.
UV Not available.
Pollen Not available.
Air Quality Not available.
Flu Activity Not available.
METAR YBCG 101700Z AUTO 24004KT 9999 // NCD 03/01 Q1016

More Conditions Fewer Conditions

Pressure 30.01 in
Visibility 6.2 miles
Clouds
Windchill 47 °F
Dew Point 24 °F
Humidity 37%
Rainfall -999.00 in
Snow Depth Not available.
UV Not available.
Pollen Not available.
Air Quality Not available.
Flu Activity Not available.
METAR YBCG 101700Z AUTO 24004KT 9999 // NCD 03/01 Q1016

More Conditions Fewer Conditions

10-Day Weather Forecast

Almanac

Astronomy

Jul. 11, 2014 Rise Set
Actual Time 6:39 AM EST 5:04 PM EST
Civil Twilight 6:13 AM EST 5:29 PM EST
Nautical Twilight 5:44 AM EST 5:59 PM EST
Astronomical Twilight 5:15 AM EST 6:27 PM EST
Moon 3:54 PM EST (7/11) 4:52 AM EST (7/11)
Length of Visible Light 11h 16m
Length of Day
10h 24m
Tomorrow will be 0m 40s longer.
Waxing Gibbous, 95% of the Moon is Illuminated
Jul 10
Waxing Gibbous
Jul 12
Full
Jul 18
Last Quarter
Jul 26
New
Aug 3
First Quarter

Yesterday's Extremes

Country Highs Country Lows

Community

WunderPhotos

Upload Photos

1,732,198 photos uploaded!

WunderBlogs® & News

Nearby

Snow Depth

Not available.

Earthquake Activity

City Distance Mag. Time & Date
No recent earthquake activity has been reported nearby.
Minimum magnitude displayed is 2.5.

Coastal Water Temperatures

Place Temperature
No Stations Reporting

Nearby Weather Stations

Station Location Temp. Windchill Dew Point Humidity Wind Precip. Elev Updated Type
McLeans Ridges 49.1 °F 47 °F 24 °F 37% WNW  at  5.0 mph 0.00 in / hr 410 ft 3:09 AM EST Normal
Ballina, Ballina 52.9 °F - 35 °F 50% West  at  13.0 mph 0.00 in / hr 20 ft 3:11 AM EST Rapid Fire
Newrybar, Newrybar 50.2 °F - 34 °F 53% WNW  at  5.0 mph 0.00 in / hr 489 ft 3:00 AM EST Normal

Show More Stations Show Fewer Stations